Damascus, Ohio
Current Conditions -  °F | °C
As of 4:51 AM on Saturday 25 Oct 2014 (Local Time) from KCAK Reporting Station
Few Clouds Few Clouds  
Wind Chill: 43°   Ceiling: Unl
Heat Index: 45°   Visibility: 10mi
Dew Point: 38°   Wind: 5mph
Humidity: 76%   Direction: 220°SW
Pressure: 29.95"   Gusts: NA
Location:  40.9°N, 80.96°W
Report Text: KCAK 250851Z 22004KT 10SM FEW039 07/03 A2995 RMK AO2 SLP144 T00720033 56013
Loading
Personal Weather Stations






























Interactive Weather Map
Tropical Storm Tracking
New forecast layout! Learn more

10-Day Weather Forecast

Advertisements
Track Severe Weather on mobile